createdAt,value
2022-12-05T00:04:02.075Z,5.00
2022-12-05T00:09:05.395Z,5.00
2022-12-05T00:14:08.804Z,5.00
2022-12-05T00:19:13.655Z,4.90
2022-12-05T00:24:16.188Z,5.00
2022-12-05T00:29:18.468Z,5.00
2022-12-05T00:34:20.342Z,5.00
2022-12-05T00:39:22.419Z,5.00
2022-12-05T00:44:24.241Z,4.90
2022-12-05T00:49:26.180Z,4.90
2022-12-05T00:54:40.990Z,4.90
2022-12-05T00:59:42.826Z,5.00
2022-12-05T01:04:44.704Z,5.00
2022-12-05T01:09:46.528Z,4.90
2022-12-05T01:14:48.359Z,4.90
2022-12-05T01:19:50.271Z,5.00
2022-12-05T01:24:52.096Z,5.00
2022-12-05T01:29:53.933Z,4.90
2022-12-05T01:34:55.781Z,4.90
2022-12-05T01:39:58.873Z,4.90
2022-12-05T01:45:07.868Z,4.80
2022-12-05T01:50:10.716Z,4.80
2022-12-05T01:55:14.955Z,4.70
2022-12-05T02:00:19.979Z,4.70
2022-12-05T02:05:36.246Z,4.70
2022-12-05T02:10:43.795Z,4.70
2022-12-05T02:16:11.625Z,4.70
2022-12-05T02:21:59.836Z,4.70
2022-12-05T02:27:28.811Z,4.60
2022-12-05T02:32:42.692Z,4.60
2022-12-05T02:37:53.456Z,4.60
2022-12-05T02:43:15.700Z,4.70
2022-12-05T02:48:18.248Z,4.70
2022-12-05T02:53:21.443Z,4.70
2022-12-05T02:58:28.095Z,4.70
2022-12-05T03:03:30.700Z,4.70
2022-12-05T03:08:49.405Z,4.70
2022-12-05T03:13:52.745Z,4.70
2022-12-05T03:19:09.580Z,4.70
2022-12-05T03:24:13.919Z,4.70
2022-12-05T03:29:25.996Z,4.70
2022-12-05T03:35:05.444Z,4.70
2022-12-05T03:40:30.051Z,4.60
2022-12-05T03:45:36.944Z,4.70
2022-12-05T03:50:42.100Z,4.70
2022-12-05T03:55:44.796Z,4.70
2022-12-05T04:00:49.558Z,4.60
2022-12-05T04:05:54.060Z,4.60
2022-12-05T04:10:59.028Z,4.60
2022-12-05T04:16:32.815Z,4.60
2022-12-05T04:21:39.165Z,4.60
2022-12-05T04:26:46.933Z,4.60
2022-12-05T04:31:52.759Z,4.50
2022-12-05T04:36:58.220Z,4.50
2022-12-05T04:42:12.324Z,4.50
2022-12-05T04:47:15.056Z,4.50
2022-12-05T04:52:17.015Z,4.50
2022-12-05T04:57:25.994Z,4.40
2022-12-05T05:02:50.702Z,4.40
2022-12-05T05:07:54.248Z,4.40
2022-12-05T05:12:56.315Z,4.40
2022-12-05T05:17:58.254Z,4.40
2022-12-05T05:23:00.129Z,4.40
2022-12-05T05:28:02.005Z,4.40
2022-12-05T05:33:03.857Z,4.50
2022-12-05T05:38:05.784Z,4.40
2022-12-05T05:43:07.628Z,4.50
2022-12-05T05:48:09.483Z,4.50
2022-12-05T05:53:11.331Z,4.40
2022-12-05T05:58:13.255Z,4.50
2022-12-05T06:03:15.254Z,4.50
2022-12-05T06:08:17.156Z,4.50
2022-12-05T06:13:19.025Z,4.50
2022-12-05T06:18:20.927Z,4.40
2022-12-05T06:23:23.032Z,4.40
2022-12-05T06:28:26.508Z,4.40
2022-12-05T06:33:28.695Z,4.40
2022-12-05T06:38:30.643Z,4.40
2022-12-05T06:43:33.017Z,4.40
2022-12-05T06:48:35.539Z,4.40
2022-12-05T06:53:40.039Z,4.40
2022-12-05T06:58:46.322Z,4.40
2022-12-05T07:03:55.233Z,4.40
2022-12-05T07:08:57.084Z,4.40
2022-12-05T07:13:58.987Z,4.40
2022-12-05T07:19:00.836Z,4.50
2022-12-05T07:24:02.717Z,4.50
2022-12-05T07:29:06.631Z,4.50
2022-12-05T07:34:08.576Z,4.50
2022-12-05T07:39:10.516Z,4.50
2022-12-05T07:44:12.980Z,4.50
2022-12-05T07:49:16.003Z,4.50
2022-12-05T07:54:17.877Z,4.50
2022-12-05T07:59:20.964Z,4.50
2022-12-05T08:04:22.804Z,4.50
2022-12-05T08:09:24.990Z,4.60
2022-12-05T08:14:26.858Z,4.60
2022-12-05T08:19:28.711Z,4.50
2022-12-05T08:24:30.597Z,4.60
2022-12-05T08:29:32.813Z,4.60
2022-12-05T08:34:34.708Z,4.60
2022-12-05T08:39:38.781Z,4.60
2022-12-05T08:44:40.862Z,4.60
2022-12-05T08:49:43.036Z,4.60
2022-12-05T08:54:44.947Z,4.70
2022-12-05T08:59:47.052Z,4.60
2022-12-05T09:04:54.755Z,4.70
2022-12-05T09:09:56.683Z,4.70
2022-12-05T09:14:58.676Z,4.70
2022-12-05T09:20:00.691Z,4.70
2022-12-05T09:25:02.605Z,4.70
2022-12-05T09:30:06.077Z,4.70
2022-12-05T09:35:08.290Z,4.70
2022-12-05T09:40:16.514Z,4.70
2022-12-05T09:45:22.732Z,4.80
2022-12-05T09:50:31.553Z,4.70
2022-12-05T09:55:36.517Z,4.80
2022-12-05T10:00:38.597Z,4.80
2022-12-05T10:06:11.213Z,4.80
2022-12-05T10:11:23.533Z,4.70
2022-12-05T10:16:47.184Z,4.70
2022-12-05T10:21:59.041Z,4.80
2022-12-05T10:27:05.598Z,4.80
2022-12-05T10:32:16.516Z,4.80
2022-12-05T10:37:22.801Z,4.80
2022-12-05T10:42:34.965Z,4.80
2022-12-05T10:47:37.120Z,4.80
2022-12-05T10:52:39.078Z,4.70
2022-12-05T10:57:41.988Z,4.70
2022-12-05T11:02:44.054Z,4.70
2022-12-05T11:07:49.670Z,4.70
2022-12-05T11:12:51.846Z,4.70
2022-12-05T11:17:55.390Z,4.70
2022-12-05T11:22:59.361Z,4.60
2022-12-05T11:28:21.409Z,4.60
2022-12-05T11:33:24.299Z,4.60
2022-12-05T11:38:28.107Z,4.60
2022-12-05T11:43:44.351Z,4.60
2022-12-05T11:48:52.383Z,4.60
2022-12-05T11:54:06.347Z,4.60
2022-12-05T11:59:45.895Z,4.60
2022-12-05T12:05:16.597Z,4.60
2022-12-05T12:10:43.206Z,4.60
2022-12-05T12:16:10.544Z,4.60
2022-12-05T12:21:19.509Z,4.60
2022-12-05T12:26:27.147Z,4.60
2022-12-05T12:31:38.216Z,4.70
2022-12-05T12:36:49.501Z,4.70
2022-12-05T12:42:01.540Z,4.70
2022-12-05T12:47:04.836Z,4.70
2022-12-05T12:52:18.983Z,4.70
2022-12-05T12:57:29.756Z,4.60
2022-12-05T13:02:49.111Z,4.60
2022-12-05T13:08:05.106Z,4.60
2022-12-05T13:13:07.807Z,4.50
2022-12-05T13:18:16.092Z,4.50
2022-12-05T13:23:20.340Z,4.50
2022-12-05T13:28:29.892Z,4.60
2022-12-05T13:33:37.121Z,4.60
2022-12-05T13:38:59.741Z,4.50
2022-12-05T13:44:06.641Z,4.50
2022-12-05T13:49:29.096Z,4.50
2022-12-05T13:54:32.507Z,4.50
2022-12-05T14:00:01.073Z,4.50
2022-12-05T14:05:25.602Z,4.50
2022-12-05T14:10:27.750Z,4.50
2022-12-05T14:15:31.016Z,4.50
2022-12-05T14:20:48.667Z,4.50
2022-12-05T14:26:09.579Z,4.60
2022-12-05T14:31:30.212Z,4.60
2022-12-05T14:36:33.794Z,4.60
2022-12-05T14:41:36.141Z,4.60
2022-12-05T14:46:38.085Z,4.60
2022-12-05T14:51:46.014Z,4.50
2022-12-05T14:56:55.110Z,4.60
2022-12-05T15:01:59.568Z,4.60
2022-12-05T15:07:11.776Z,4.60
2022-12-05T15:12:24.013Z,4.60
2022-12-05T15:17:30.784Z,4.60
2022-12-05T15:22:37.763Z,4.60
2022-12-05T15:27:39.658Z,4.60
2022-12-05T15:32:41.568Z,4.60
2022-12-05T15:38:06.292Z,4.60
2022-12-05T15:43:31.832Z,4.60
2022-12-05T15:48:34.325Z,4.50
2022-12-05T15:53:59.828Z,4.50
2022-12-05T15:59:28.298Z,4.50
2022-12-05T16:04:57.154Z,4.60
2022-12-05T16:10:01.926Z,4.50
2022-12-05T16:15:10.761Z,4.50
2022-12-05T16:20:24.693Z,4.40
2022-12-05T16:25:36.951Z,4.40
2022-12-05T16:30:39.569Z,4.30
2022-12-05T16:35:43.794Z,4.20
2022-12-05T16:40:46.212Z,4.20
2022-12-05T16:45:49.651Z,4.20
2022-12-05T16:50:56.832Z,4.20
2022-12-05T16:55:59.857Z,4.10
2022-12-05T17:01:04.939Z,4.10
2022-12-05T17:06:06.832Z,4.10
2022-12-05T17:11:17.702Z,4.10
2022-12-05T17:16:20.599Z,4.10
2022-12-05T17:21:25.247Z,4.10
2022-12-05T17:26:27.343Z,4.10
2022-12-05T17:31:33.414Z,4.10
2022-12-05T17:36:35.380Z,4.10
2022-12-05T17:41:37.716Z,4.10
2022-12-05T17:46:41.736Z,4.10
2022-12-05T17:57:05.817Z,4.10
2022-12-05T18:09:07.891Z,4.10
2022-12-05T18:14:10.485Z,4.10
2022-12-05T18:19:12.465Z,4.10
2022-12-05T18:24:20.400Z,4.10
2022-12-05T18:29:24.384Z,4.10
2022-12-05T18:34:26.362Z,4.10
2022-12-05T18:39:28.181Z,4.10
2022-12-05T18:44:32.888Z,4.10
2022-12-05T18:49:34.863Z,4.10
2022-12-05T18:54:37.913Z,4.10
2022-12-05T18:59:40.058Z,4.20
2022-12-05T19:04:41.864Z,4.20
2022-12-05T19:09:43.720Z,4.20
2022-12-05T19:14:46.759Z,4.20
2022-12-05T19:19:48.640Z,4.20
2022-12-05T19:24:50.452Z,4.20
2022-12-05T19:29:52.313Z,4.10
2022-12-05T19:34:54.138Z,4.20
2022-12-05T19:39:56.066Z,4.20
2022-12-05T19:45:18.421Z,4.20
2022-12-05T19:50:20.516Z,4.20
2022-12-05T19:55:22.453Z,4.20
2022-12-05T20:00:24.438Z,4.20
2022-12-05T20:05:31.405Z,4.20
2022-12-05T20:10:35.752Z,4.20
2022-12-05T20:15:37.735Z,4.20
2022-12-05T20:20:40.048Z,4.20
2022-12-05T20:25:41.889Z,4.20
2022-12-05T20:30:44.724Z,4.20
2022-12-05T20:35:46.756Z,4.20
2022-12-05T20:40:49.765Z,4.20
2022-12-05T20:45:51.639Z,4.20
2022-12-05T20:50:54.493Z,4.20
2022-12-05T20:56:12.731Z,4.20
2022-12-05T21:01:15.478Z,4.20
2022-12-05T21:06:22.617Z,4.10
2022-12-05T21:11:25.898Z,4.10
2022-12-05T21:16:28.233Z,4.10
2022-12-05T21:21:31.954Z,4.10
2022-12-05T21:26:34.529Z,4.10
2022-12-05T21:31:39.417Z,4.10
2022-12-05T21:36:41.560Z,4.20
2022-12-05T21:41:43.406Z,4.10
2022-12-05T21:46:45.689Z,4.20
2022-12-05T21:51:47.723Z,4.20
2022-12-05T21:56:49.559Z,4.20
2022-12-05T22:01:51.475Z,4.20
2022-12-05T22:06:53.317Z,4.10
2022-12-05T22:11:57.442Z,4.10
2022-12-05T22:16:59.431Z,4.10
2022-12-05T22:22:01.334Z,4.20
2022-12-05T22:27:03.246Z,4.20
2022-12-05T22:32:05.431Z,4.10
2022-12-05T22:37:07.252Z,4.10
2022-12-05T22:42:09.098Z,4.20
2022-12-05T22:47:10.939Z,4.10
2022-12-05T22:52:12.829Z,4.10
2022-12-05T22:57:14.663Z,4.10
2022-12-05T23:02:16.494Z,4.10
2022-12-05T23:07:18.349Z,4.10
2022-12-05T23:12:21.666Z,4.00
2022-12-05T23:17:23.484Z,4.00
2022-12-05T23:22:27.452Z,4.00
2022-12-05T23:27:29.275Z,4.00
2022-12-05T23:32:31.235Z,3.90
2022-12-05T23:37:33.077Z,3.90
2022-12-05T23:42:34.955Z,3.80
2022-12-05T23:47:36.881Z,3.80
2022-12-05T23:52:38.727Z,3.70
2022-12-05T23:57:40.564Z,3.70
